createdAt,value
2019-03-01T00:00:01.076Z,1009.08
2019-03-01T00:01:00.927Z,1009.10
2019-03-01T00:02:00.928Z,1009.09
2019-03-01T00:03:00.808Z,1009.06
2019-03-01T00:04:00.805Z,1009.05
2019-03-01T00:05:00.807Z,1009.05
2019-03-01T00:06:00.687Z,1009.05
2019-03-01T00:07:00.687Z,1008.99
2019-03-01T00:08:00.568Z,1009.02
2019-03-01T00:09:00.566Z,1009.06
2019-03-01T00:10:00.581Z,1009.05
2019-03-01T00:11:00.451Z,1009.07
2019-03-01T00:12:00.442Z,1009.00
2019-03-01T00:13:00.441Z,1009.03
2019-03-01T00:14:00.322Z,1009.00
2019-03-01T00:15:00.359Z,1008.99
2019-03-01T00:16:00.209Z,1009.00
2019-03-01T00:17:00.203Z,1008.98
2019-03-01T00:18:00.203Z,1008.98
2019-03-01T00:19:00.090Z,1008.96
2019-03-01T00:20:00.171Z,1008.96
2019-03-01T00:20:59.963Z,1008.97
2019-03-01T00:21:59.963Z,1008.94
2019-03-01T00:22:59.967Z,1008.93
2019-03-01T00:23:59.847Z,1008.93
2019-03-01T00:24:59.841Z,1008.93
2019-03-01T00:26:59.723Z,1008.87
2019-03-01T00:27:59.722Z,1008.91
2019-03-01T00:28:59.602Z,1008.87
2019-03-01T00:29:59.601Z,1008.89
2019-03-01T00:30:59.598Z,1008.84
2019-03-01T00:31:59.484Z,1008.87
2019-03-01T00:32:59.477Z,1008.87
2019-03-01T00:33:59.360Z,1008.83
2019-03-01T00:34:59.362Z,1008.81
2019-03-01T00:35:59.360Z,1008.79
2019-03-01T00:36:59.245Z,1008.83
2019-03-01T00:37:59.238Z,1008.76
2019-03-01T00:38:59.115Z,1008.78
2019-03-01T00:39:59.121Z,1008.76
2019-03-01T00:40:59.132Z,1008.74
2019-03-01T00:41:58.999Z,1008.70
2019-03-01T00:42:59.001Z,1008.72
2019-03-01T00:43:58.960Z,1008.76
2019-03-01T00:44:58.884Z,1008.67
2019-03-01T00:45:58.875Z,1008.70
2019-03-01T00:46:58.761Z,1008.70
2019-03-01T00:47:58.757Z,1008.69
2019-03-01T00:48:58.757Z,1008.72
2019-03-01T00:49:58.638Z,1008.68
2019-03-01T00:50:58.635Z,1008.68
2019-03-01T00:51:58.525Z,1008.68
2019-03-01T00:52:58.524Z,1008.65
2019-03-01T00:53:58.514Z,1008.67
2019-03-01T00:54:58.393Z,1008.56
2019-03-01T00:55:58.400Z,1008.62
2019-03-01T00:56:58.358Z,1008.57
2019-03-01T00:57:58.275Z,1008.60
2019-03-01T00:58:58.275Z,1008.57
2019-03-01T00:59:58.155Z,1008.54
2019-03-01T01:00:58.152Z,1008.58
2019-03-01T01:01:58.156Z,1008.55
2019-03-01T01:02:58.032Z,1008.57
2019-03-01T01:03:58.032Z,1008.52
2019-03-01T01:04:57.911Z,1008.51
2019-03-01T01:05:57.913Z,1008.50
2019-03-01T01:06:57.912Z,1008.50
2019-03-01T01:07:57.790Z,1008.46
2019-03-01T01:08:57.795Z,1008.48
2019-03-01T01:09:57.672Z,1008.42
2019-03-01T01:10:57.672Z,1008.45
2019-03-01T01:11:57.671Z,1008.45
2019-03-01T01:12:57.559Z,1008.45
2019-03-01T01:13:57.552Z,1008.41
2019-03-01T01:14:57.517Z,1008.43
2019-03-01T01:15:57.438Z,1008.41
2019-03-01T01:16:57.428Z,1008.40
2019-03-01T01:17:57.310Z,1008.43
2019-03-01T01:18:57.309Z,1008.41
2019-03-01T01:19:57.309Z,1008.43
2019-03-01T01:20:57.191Z,1008.42
2019-03-01T01:21:57.203Z,1008.41
2019-03-01T01:22:57.079Z,1008.41
2019-03-01T01:23:57.067Z,1008.42
2019-03-01T01:24:57.068Z,1008.38
2019-03-01T01:25:56.946Z,1008.35
2019-03-01T01:26:56.952Z,1008.34
2019-03-01T01:27:56.833Z,1008.33
2019-03-01T01:28:56.828Z,1008.33
2019-03-01T01:29:56.827Z,1008.30
2019-03-01T01:30:56.707Z,1008.30
2019-03-01T01:31:56.705Z,1008.28
2019-03-01T01:32:56.671Z,1008.33
2019-03-01T01:33:56.595Z,1008.29
2019-03-01T01:34:56.586Z,1008.27
2019-03-01T01:35:56.464Z,1008.28
2019-03-01T01:36:56.467Z,1008.26
2019-03-01T01:37:56.467Z,1008.26
2019-03-01T01:38:56.344Z,1008.24
2019-03-01T01:39:56.347Z,1008.24
2019-03-01T01:40:56.226Z,1008.19
2019-03-01T01:41:56.224Z,1008.19
2019-03-01T01:42:56.224Z,1008.22
2019-03-01T01:43:56.105Z,1008.15
2019-03-01T01:44:56.106Z,1008.12
2019-03-01T01:45:55.985Z,1008.10
2019-03-01T01:46:55.983Z,1008.16
2019-03-01T01:47:55.981Z,1008.10
2019-03-01T01:48:55.866Z,1008.10
2019-03-01T01:49:55.869Z,1008.09
2019-03-01T01:50:55.826Z,1008.10
2019-03-01T01:51:55.743Z,1008.08
2019-03-01T01:52:55.743Z,1008.04
2019-03-01T01:53:55.635Z,1008.06
2019-03-01T01:54:55.625Z,1008.05
2019-03-01T01:55:55.623Z,1008.06
2019-03-01T01:56:55.505Z,1008.01
2019-03-01T01:57:55.500Z,1008.04
2019-03-01T01:58:55.381Z,1008.04
2019-03-01T01:59:55.385Z,1008.01
2019-03-01T02:00:55.388Z,1008.00
2019-03-01T02:01:55.259Z,1008.02
2019-03-01T02:02:55.261Z,1008.01
2019-03-01T02:03:55.141Z,1008.03
2019-03-01T02:04:55.138Z,1007.98
2019-03-01T02:05:55.143Z,1008.03
2019-03-01T02:06:55.023Z,1008.01
2019-03-01T02:07:55.022Z,1007.98
2019-03-01T02:08:54.982Z,1007.96
2019-03-01T02:09:54.898Z,1007.94
2019-03-01T02:10:54.897Z,1007.96
2019-03-01T02:11:54.778Z,1008.03
2019-03-01T02:12:54.777Z,1007.93
2019-03-01T02:13:54.777Z,1007.98
2019-03-01T02:14:54.658Z,1007.99
2019-03-01T02:15:54.657Z,1008.01
2019-03-01T02:16:54.538Z,1007.99
2019-03-01T02:17:54.538Z,1007.99
2019-03-01T02:18:57.819Z,1007.97
2019-03-01T02:19:54.416Z,1007.99
2019-03-01T02:20:54.416Z,1007.96
2019-03-01T02:21:54.301Z,1007.96
2019-03-01T02:22:54.295Z,1007.93
2019-03-01T02:23:54.293Z,1007.95
2019-03-01T02:24:54.174Z,1007.94
2019-03-01T02:25:54.180Z,1007.96
2019-03-01T02:26:54.177Z,1007.94
2019-03-01T02:27:54.054Z,1007.96
2019-03-01T02:28:54.052Z,1007.91
2019-03-01T02:29:53.932Z,1007.89
2019-03-01T02:30:53.932Z,1007.87
2019-03-01T02:31:53.938Z,1007.91
2019-03-01T02:32:53.816Z,1007.87
2019-03-01T02:33:53.899Z,1007.89
2019-03-01T02:34:53.698Z,1007.87
2019-03-01T02:35:53.705Z,1007.85
2019-03-01T02:36:53.691Z,1007.85
2019-03-01T02:37:53.581Z,1007.85
2019-03-01T02:38:53.576Z,1007.85
2019-03-01T02:39:53.449Z,1007.82
2019-03-01T02:40:53.405Z,1007.83
2019-03-01T02:41:53.359Z,1007.81
2019-03-01T02:42:53.309Z,1007.79
2019-03-01T02:43:53.263Z,1007.73
2019-03-01T02:44:53.215Z,1007.73
2019-03-01T02:45:53.170Z,1007.71
2019-03-01T02:46:53.121Z,1007.73
2019-03-01T02:47:53.100Z,1007.67
2019-03-01T02:48:53.030Z,1007.73
2019-03-01T02:49:52.983Z,1007.67
2019-03-01T02:50:52.934Z,1007.69
2019-03-01T02:51:52.887Z,1007.71
2019-03-01T02:52:52.852Z,1007.65
2019-03-01T02:53:52.796Z,1007.68
2019-03-01T02:54:52.750Z,1007.67
2019-03-01T02:55:52.698Z,1007.65
2019-03-01T02:56:52.667Z,1007.61
2019-03-01T02:57:52.612Z,1007.67
2019-03-01T02:58:52.558Z,1007.60
2019-03-01T02:59:52.512Z,1007.59
2019-03-01T03:00:52.468Z,1007.61
2019-03-01T03:01:52.424Z,1007.60
2019-03-01T03:02:52.372Z,1007.65
2019-03-01T03:03:52.329Z,1007.60
2019-03-01T03:04:52.279Z,1007.59
2019-03-01T03:05:52.236Z,1007.57
2019-03-01T03:06:52.185Z,1007.57
2019-03-01T03:07:52.137Z,1007.55
2019-03-01T03:08:52.092Z,1007.55
2019-03-01T03:09:52.046Z,1007.58
2019-03-01T03:10:52.008Z,1007.56
2019-03-01T03:11:51.952Z,1007.54
2019-03-01T03:12:51.912Z,1007.54
2019-03-01T03:13:51.859Z,1007.53
2019-03-01T03:14:51.810Z,1007.56
2019-03-01T03:15:51.763Z,1007.54
2019-03-01T03:16:51.714Z,1007.54
2019-03-01T03:17:51.672Z,1007.55
2019-03-01T03:18:51.626Z,1007.52
2019-03-01T03:19:51.578Z,1007.52
2019-03-01T03:20:51.529Z,1007.51
2019-03-01T03:21:51.487Z,1007.55
2019-03-01T03:22:51.435Z,1007.54
2019-03-01T03:23:51.424Z,1007.54
2019-03-01T03:24:51.339Z,1007.55
2019-03-01T03:25:51.298Z,1007.55
2019-03-01T03:26:51.250Z,1007.47
2019-03-01T03:27:51.199Z,1007.48
2019-03-01T03:28:51.160Z,1007.45
2019-03-01T03:29:51.105Z,1007.50
2019-03-01T03:30:51.061Z,1007.50
2019-03-01T03:31:51.019Z,1007.49
2019-03-01T03:32:50.983Z,1007.50
2019-03-01T03:33:50.918Z,1007.49
2019-03-01T03:34:50.893Z,1007.52
2019-03-01T03:35:50.828Z,1007.54
2019-03-01T03:36:50.780Z,1007.42
2019-03-01T03:37:50.728Z,1007.52
2019-03-01T03:38:50.684Z,1007.53
2019-03-01T03:39:50.636Z,1007.52
2019-03-01T03:40:50.589Z,1007.52
2019-03-01T03:41:50.543Z,1007.55
2019-03-01T03:42:50.497Z,1007.54
2019-03-01T03:43:50.452Z,1007.53
2019-03-01T03:44:50.409Z,1007.52
2019-03-01T03:45:50.356Z,1007.56
2019-03-01T03:46:50.315Z,1007.53
2019-03-01T03:47:50.266Z,1007.56
2019-03-01T03:48:50.231Z,1007.52
2019-03-01T03:49:50.166Z,1007.54
2019-03-01T03:50:50.124Z,1007.51
2019-03-01T03:51:50.077Z,1007.50
2019-03-01T03:52:50.027Z,1007.52
2019-03-01T03:53:49.986Z,1007.48
2019-03-01T03:54:49.940Z,1007.54
2019-03-01T03:55:49.896Z,1007.47
2019-03-01T03:56:49.837Z,1007.50
2019-03-01T03:57:49.800Z,1007.49
2019-03-01T03:58:49.761Z,1007.48
2019-03-01T03:59:49.713Z,1007.46
2019-03-01T04:00:49.656Z,1007.48
2019-03-01T04:01:49.603Z,1007.48
2019-03-01T04:02:49.558Z,1007.50
2019-03-01T04:03:49.511Z,1007.50
2019-03-01T04:04:49.468Z,1007.57
2019-03-01T04:05:49.418Z,1007.55
2019-03-01T04:06:49.375Z,1007.54
2019-03-01T04:07:49.327Z,1007.54
2019-03-01T04:08:49.277Z,1007.51
2019-03-01T04:09:49.228Z,1007.53
2019-03-01T04:10:49.183Z,1007.51
2019-03-01T04:11:49.143Z,1007.51
2019-03-01T04:12:49.088Z,1007.48
2019-03-01T04:13:49.044Z,1007.48
2019-03-01T04:14:48.997Z,1007.48
2019-03-01T04:15:48.962Z,1007.50
2019-03-01T04:16:48.899Z,1007.47
2019-03-01T04:17:48.859Z,1007.47
2019-03-01T04:18:48.808Z,1007.43
2019-03-01T04:19:48.759Z,1007.45
2019-03-01T04:20:48.728Z,1007.46
2019-03-01T04:21:48.664Z,1007.45
2019-03-01T04:22:48.619Z,1007.45
2019-03-01T04:23:48.577Z,1007.43
2019-03-01T04:24:48.532Z,1007.43
2019-03-01T04:25:48.478Z,1007.44
2019-03-01T04:26:48.439Z,1007.43
2019-03-01T04:27:48.385Z,1007.43
2019-03-01T04:28:48.338Z,1007.42
2019-03-01T04:29:48.289Z,1007.42
2019-03-01T04:30:48.247Z,1007.41
2019-03-01T04:31:48.211Z,1007.42
2019-03-01T04:32:48.152Z,1007.44
2019-03-01T04:33:48.103Z,1007.41
2019-03-01T04:34:48.058Z,1007.42
2019-03-01T04:35:48.017Z,1007.44
2019-03-01T04:36:47.962Z,1007.45
2019-03-01T04:37:47.912Z,1007.36
2019-03-01T04:38:47.872Z,1007.44
2019-03-01T04:39:47.820Z,1007.45
2019-03-01T04:40:47.774Z,1007.45
2019-03-01T04:41:47.729Z,1007.46
2019-03-01T04:42:47.678Z,1007.37
2019-03-01T04:43:47.635Z,1007.40
2019-03-01T04:44:47.586Z,1007.39
2019-03-01T04:45:47.539Z,1007.41
2019-03-01T04:46:47.498Z,1007.43
2019-03-01T04:47:47.446Z,1007.41
2019-03-01T04:48:47.399Z,1007.42
2019-03-01T04:49:47.354Z,1007.42
2019-03-01T04:50:47.312Z,1007.40
2019-03-01T04:51:47.256Z,1007.42
2019-03-01T04:52:47.223Z,1007.43
2019-03-01T04:53:47.165Z,1007.43
2019-03-01T04:54:47.116Z,1007.44
2019-03-01T04:55:47.073Z,1007.42
2019-03-01T04:56:47.023Z,1007.44
2019-03-01T04:57:46.975Z,1007.36
2019-03-01T04:58:46.940Z,1007.46
2019-03-01T04:59:46.882Z,1007.45
2019-03-01T05:00:46.835Z,1007.45
2019-03-01T05:01:46.790Z,1007.47
2019-03-01T05:02:46.754Z,1007.50
2019-03-01T05:03:46.698Z,1007.48
2019-03-01T05:04:46.645Z,1007.49
2019-03-01T05:05:46.600Z,1007.47
2019-03-01T05:06:46.554Z,1007.53
2019-03-01T05:07:46.506Z,1007.50
2019-03-01T05:08:46.459Z,1007.50
2019-03-01T05:09:46.417Z,1007.54
2019-03-01T05:10:46.366Z,1007.54
2019-03-01T05:11:46.320Z,1007.51
2019-03-01T05:12:46.271Z,1007.51
2019-03-01T05:13:46.228Z,1007.56
2019-03-01T05:14:46.179Z,1007.53
2019-03-01T05:15:46.134Z,1007.57
2019-03-01T05:16:46.085Z,1007.58
2019-03-01T05:17:46.039Z,1007.54
2019-03-01T05:18:45.988Z,1007.58
2019-03-01T05:19:45.948Z,1007.60
2019-03-01T05:20:45.917Z,1007.59
2019-03-01T05:21:45.853Z,1007.61
2019-03-01T05:22:45.806Z,1007.62
2019-03-01T05:23:45.759Z,1007.59
2019-03-01T05:24:45.714Z,1007.61
2019-03-01T05:25:47.581Z,1007.64
2019-03-01T05:26:45.628Z,1007.64
2019-03-01T05:27:45.566Z,1007.65
2019-03-01T05:28:45.520Z,1007.61
2019-03-01T05:29:45.475Z,1007.65
2019-03-01T05:30:45.427Z,1007.64
2019-03-01T05:31:45.379Z,1007.62
2019-03-01T05:32:45.341Z,1007.63
2019-03-01T05:33:45.298Z,1007.61
2019-03-01T05:34:45.242Z,1007.64
2019-03-01T05:35:45.194Z,1007.67
2019-03-01T05:36:45.169Z,1007.64
2019-03-01T05:37:45.099Z,1007.68
2019-03-01T05:38:45.060Z,1007.67
2019-03-01T05:39:45.004Z,1007.63
2019-03-01T05:40:44.960Z,1007.64
2019-03-01T05:41:44.909Z,1007.64
2019-03-01T05:42:44.880Z,1007.68
2019-03-01T05:43:44.818Z,1007.67
2019-03-01T05:44:44.777Z,1007.66
2019-03-01T05:45:44.722Z,1007.66
2019-03-01T05:46:44.689Z,1007.65
2019-03-01T05:47:44.629Z,1007.65
2019-03-01T05:48:44.581Z,1007.65
2019-03-01T05:49:44.535Z,1007.64
2019-03-01T05:50:44.491Z,1007.67
2019-03-01T05:51:44.444Z,1007.64
2019-03-01T05:52:44.403Z,1007.63
2019-03-01T05:53:44.350Z,1007.63
2019-03-01T05:54:44.307Z,1007.59
2019-03-01T05:55:44.255Z,1007.61
2019-03-01T05:56:44.207Z,1007.63
2019-03-01T05:57:44.161Z,1007.66
2019-03-01T05:58:44.114Z,1007.62
2019-03-01T05:59:44.066Z,1007.66
2019-03-01T06:00:44.028Z,1007.67
2019-03-01T06:01:43.974Z,1007.67
2019-03-01T06:02:43.930Z,1007.68
2019-03-01T06:03:43.880Z,1007.75
2019-03-01T06:04:43.843Z,1007.75
2019-03-01T06:05:43.786Z,1007.78
2019-03-01T06:06:43.745Z,1007.80
2019-03-01T06:07:43.693Z,1007.78
2019-03-01T06:08:43.646Z,1007.81
2019-03-01T06:09:43.602Z,1007.85
2019-03-01T06:10:43.568Z,1007.87
2019-03-01T06:11:43.507Z,1007.87
2019-03-01T06:12:43.457Z,1007.90
2019-03-01T06:13:43.415Z,1007.87
2019-03-01T06:14:43.374Z,1007.92
2019-03-01T06:15:43.317Z,1007.95
2019-03-01T06:16:43.270Z,1007.98
2019-03-01T06:17:43.228Z,1007.96
2019-03-01T06:18:43.179Z,1007.99
2019-03-01T06:19:43.130Z,1008.01
2019-03-01T06:20:43.085Z,1008.04
2019-03-01T06:21:43.041Z,1008.01
2019-03-01T06:22:42.990Z,1008.07
2019-03-01T06:23:42.943Z,1008.05
2019-03-01T06:24:42.905Z,1008.07
2019-03-01T06:25:42.871Z,1008.09
2019-03-01T06:26:42.803Z,1008.10
2019-03-01T06:27:42.759Z,1008.11
2019-03-01T06:28:42.713Z,1008.13
2019-03-01T06:29:42.665Z,1008.11
2019-03-01T06:30:51.485Z,1008.17
2019-03-01T06:31:42.570Z,1008.15
2019-03-01T06:32:42.523Z,1008.14
2019-03-01T06:33:42.481Z,1008.19
2019-03-01T06:34:42.429Z,1008.15
2019-03-01T06:35:42.385Z,1008.16
2019-03-01T06:36:42.334Z,1008.21
2019-03-01T06:37:42.303Z,1008.16
2019-03-01T06:38:42.242Z,1008.14
2019-03-01T06:39:42.197Z,1008.16
2019-03-01T06:40:42.149Z,1008.19
2019-03-01T06:41:42.111Z,1008.16
2019-03-01T06:42:42.055Z,1008.20
2019-03-01T06:43:42.005Z,1008.21
2019-03-01T06:44:41.962Z,1008.18
2019-03-01T06:45:41.912Z,1008.20
2019-03-01T06:46:41.866Z,1008.22
2019-03-01T06:47:41.820Z,1008.22
2019-03-01T06:48:41.772Z,1008.24
2019-03-01T06:49:41.738Z,1008.24
2019-03-01T06:50:41.686Z,1008.28
2019-03-01T06:51:41.639Z,1008.25
2019-03-01T06:52:41.591Z,1008.25
2019-03-01T06:53:41.542Z,1008.25
2019-03-01T06:54:41.498Z,1008.25
2019-03-01T06:55:41.443Z,1008.27
2019-03-01T06:56:41.397Z,1008.25
2019-03-01T06:57:41.357Z,1008.25
2019-03-01T06:58:41.306Z,1008.30
2019-03-01T06:59:41.261Z,1008.26
2019-03-01T07:00:49.786Z,1008.25
2019-03-01T07:01:41.177Z,1008.27
2019-03-01T07:02:41.118Z,1008.28
2019-03-01T07:03:41.078Z,1008.25
2019-03-01T07:04:41.025Z,1008.29
2019-03-01T07:05:40.981Z,1008.29
2019-03-01T07:06:40.931Z,1008.25
2019-03-01T07:07:40.899Z,1008.28
2019-03-01T07:08:40.836Z,1008.32
2019-03-01T07:09:42.482Z,1008.31
2019-03-01T07:10:40.744Z,1008.32
2019-03-01T07:11:40.703Z,1008.36
2019-03-01T07:12:40.654Z,1008.33
2019-03-01T07:13:40.602Z,1008.39
2019-03-01T07:14:40.554Z,1008.35
2019-03-01T07:15:40.510Z,1008.35
2019-03-01T07:16:40.461Z,1008.42
2019-03-01T07:17:40.417Z,1008.44
2019-03-01T07:18:40.367Z,1008.46
2019-03-01T07:19:40.319Z,1008.45
2019-03-01T07:20:40.301Z,1008.51
2019-03-01T07:21:40.225Z,1008.49
2019-03-01T07:22:40.182Z,1008.49
2019-03-01T07:23:40.134Z,1008.51
2019-03-01T07:24:40.129Z,1008.59
2019-03-01T07:25:40.037Z,1008.53
2019-03-01T07:26:39.999Z,1008.56
2019-03-01T07:27:39.945Z,1008.58
2019-03-01T07:28:39.901Z,1008.59
2019-03-01T07:29:39.852Z,1008.60
2019-03-01T07:30:39.803Z,1008.61
2019-03-01T07:31:39.761Z,1008.61
2019-03-01T07:32:39.720Z,1008.59
2019-03-01T07:33:39.663Z,1008.57
2019-03-01T07:34:39.629Z,1008.63
2019-03-01T07:35:39.569Z,1008.62
2019-03-01T07:36:39.526Z,1008.62
2019-03-01T07:37:39.477Z,1008.67
2019-03-01T07:38:39.429Z,1008.66
2019-03-01T07:39:39.384Z,1008.69
2019-03-01T07:40:39.336Z,1008.69
2019-03-01T07:41:39.291Z,1008.70
2019-03-01T07:42:39.243Z,1008.70
2019-03-01T07:43:39.204Z,1008.70
2019-03-01T07:44:39.147Z,1008.82
2019-03-01T07:45:39.105Z,1008.82
2019-03-01T07:46:39.058Z,1008.84
2019-03-01T07:47:39.009Z,1008.85
2019-03-01T07:48:38.963Z,1008.90
2019-03-01T07:49:38.917Z,1008.86
2019-03-01T07:50:38.873Z,1008.91
2019-03-01T07:51:38.821Z,1008.89
2019-03-01T07:52:38.774Z,1008.89
2019-03-01T07:53:41.865Z,1008.94
2019-03-01T07:54:38.683Z,1008.99
2019-03-01T07:55:38.638Z,1008.97
2019-03-01T07:56:39.854Z,1009.01
2019-03-01T07:57:38.546Z,1009.04
2019-03-01T07:58:38.493Z,1009.04
2019-03-01T07:59:39.483Z,1009.06
2019-03-01T08:00:38.408Z,1009.11
2019-03-01T08:01:38.354Z,1009.17
2019-03-01T08:02:39.778Z,1009.18
2019-03-01T08:03:38.261Z,1009.13
2019-03-01T08:04:38.212Z,1009.20
2019-03-01T08:05:39.435Z,1009.24
2019-03-01T08:06:38.123Z,1009.27
2019-03-01T08:07:38.074Z,1009.28
2019-03-01T08:08:38.797Z,1009.32
2019-03-01T08:09:41.043Z,1009.37
2019-03-01T08:10:37.931Z,1009.39
2019-03-01T08:11:37.904Z,1009.42
2019-03-01T08:12:38.704Z,1009.42
2019-03-01T08:13:37.792Z,1009.42
2019-03-01T08:14:37.750Z,1009.46
2019-03-01T08:15:40.747Z,1009.47
2019-03-01T08:16:37.652Z,1009.54
2019-03-01T08:17:37.609Z,1009.49
2019-03-01T08:18:40.083Z,1009.50
2019-03-01T08:19:37.513Z,1009.52
2019-03-01T08:20:37.462Z,1009.55
2019-03-01T08:21:37.434Z,1009.51
2019-03-01T08:22:47.518Z,1009.54
2019-03-01T08:23:37.322Z,1009.56
2019-03-01T08:24:37.276Z,1009.63
2019-03-01T08:25:37.228Z,1009.61
2019-03-01T08:26:37.182Z,1009.63
2019-03-01T08:27:37.138Z,1009.61
2019-03-01T08:28:37.113Z,1009.59
2019-03-01T08:29:37.039Z,1009.60
2019-03-01T08:30:36.998Z,1009.70
2019-03-01T08:31:36.943Z,1009.67
2019-03-01T08:32:36.896Z,1009.71
2019-03-01T08:33:42.177Z,1009.70
2019-03-01T08:34:36.805Z,1009.72
2019-03-01T08:35:36.759Z,1009.71
2019-03-01T08:36:38.692Z,1009.71
2019-03-01T08:37:36.664Z,1009.75
2019-03-01T08:38:36.621Z,1009.74
2019-03-01T08:39:39.798Z,1009.75
2019-03-01T08:40:36.524Z,1009.75
2019-03-01T08:41:36.473Z,1009.76
2019-03-01T08:42:37.359Z,1009.80
2019-03-01T08:43:36.381Z,1009.81
2019-03-01T08:44:36.337Z,1009.81
2019-03-01T08:45:36.287Z,1009.79
2019-03-01T08:46:36.237Z,1009.82
2019-03-01T08:47:36.189Z,1009.80
2019-03-01T08:48:36.144Z,1009.81
2019-03-01T08:49:36.096Z,1009.80
2019-03-01T08:50:36.055Z,1009.81
2019-03-01T08:51:36.000Z,1009.76
2019-03-01T08:52:37.169Z,1009.82
2019-03-01T08:53:35.910Z,1009.84
2019-03-01T08:54:35.862Z,1009.89
2019-03-01T08:55:38.921Z,1009.84
2019-03-01T08:56:35.768Z,1009.90
2019-03-01T08:57:43.964Z,1009.95
2019-03-01T08:58:37.596Z,1009.96
2019-03-01T08:59:35.686Z,1009.89
2019-03-01T09:00:35.638Z,1009.96
2019-03-01T09:01:35.613Z,1009.96
2019-03-01T09:02:35.545Z,1010.02
2019-03-01T09:03:35.433Z,1010.06
2019-03-01T09:04:37.986Z,1010.05
2019-03-01T09:05:35.346Z,1010.02
2019-03-01T09:06:35.295Z,1010.13
2019-03-01T09:07:35.245Z,1010.12
2019-03-01T09:08:35.201Z,1010.18
2019-03-01T09:09:35.153Z,1010.16
2019-03-01T09:10:35.102Z,1010.16
2019-03-01T09:11:35.056Z,1010.13
2019-03-01T09:12:35.010Z,1010.18
2019-03-01T09:13:36.238Z,1010.19
2019-03-01T09:14:34.917Z,1010.21
2019-03-01T09:15:36.809Z,1010.23
2019-03-01T09:16:34.824Z,1010.20
2019-03-01T09:17:34.774Z,1010.23
2019-03-01T09:18:34.729Z,1010.24
2019-03-01T09:19:34.678Z,1010.27
2019-03-01T09:20:38.524Z,1010.26
2019-03-01T09:21:34.585Z,1010.30
2019-03-01T09:22:34.540Z,1010.35
2019-03-01T09:23:34.489Z,1010.31
2019-03-01T09:24:34.442Z,1010.31
2019-03-01T09:25:34.412Z,1010.35
2019-03-01T09:26:35.604Z,1010.35
2019-03-01T09:27:34.300Z,1010.37
2019-03-01T09:28:38.445Z,1010.36
2019-03-01T09:29:41.313Z,1010.40
2019-03-01T09:30:34.162Z,1010.38
2019-03-01T09:31:34.110Z,1010.39
2019-03-01T09:32:34.873Z,1010.41
2019-03-01T09:33:34.016Z,1010.46
2019-03-01T09:34:33.973Z,1010.43
2019-03-01T09:35:33.923Z,1010.45
2019-03-01T09:36:33.882Z,1010.52
2019-03-01T09:37:33.827Z,1010.49
2019-03-01T09:38:33.792Z,1010.48
2019-03-01T09:39:33.738Z,1010.49
2019-03-01T09:40:33.688Z,1010.52
2019-03-01T09:41:36.616Z,1010.52
2019-03-01T09:42:33.594Z,1010.52
2019-03-01T09:43:33.541Z,1010.53
2019-03-01T09:44:34.625Z,1010.56
2019-03-01T09:45:36.472Z,1010.57
2019-03-01T09:46:33.407Z,1010.56
2019-03-01T09:47:33.644Z,1010.57
2019-03-01T09:48:33.307Z,1010.56
2019-03-01T09:49:33.261Z,1010.58
2019-03-01T09:50:34.480Z,1010.60
2019-03-01T09:51:33.163Z,1010.61
2019-03-01T09:52:33.120Z,1010.63
2019-03-01T09:53:34.015Z,1010.62
2019-03-01T09:54:33.023Z,1010.62
2019-03-01T09:55:34.821Z,1010.67
2019-03-01T09:56:32.930Z,1010.67
2019-03-01T09:57:32.887Z,1010.65
2019-03-01T09:58:32.837Z,1010.66
2019-03-01T09:59:32.785Z,1010.71
2019-03-01T10:00:32.742Z,1010.67
2019-03-01T10:01:32.695Z,1010.71
2019-03-01T10:02:32.646Z,1010.65
2019-03-01T10:03:32.594Z,1010.69
2019-03-01T10:04:32.549Z,1010.69
2019-03-01T10:05:32.505Z,1010.73
2019-03-01T10:06:38.150Z,1010.73
2019-03-01T10:07:32.410Z,1010.76
2019-03-01T10:08:32.360Z,1010.80
2019-03-01T10:09:32.315Z,1010.80
2019-03-01T10:10:32.268Z,1010.78
2019-03-01T10:11:32.216Z,1010.78
2019-03-01T10:12:32.170Z,1010.87
2019-03-01T10:14:32.080Z,1010.87
2019-03-01T10:15:32.027Z,1010.86
2019-03-01T10:16:31.980Z,1010.90
2019-03-01T10:17:31.934Z,1010.88
2019-03-01T10:18:31.891Z,1010.93
2019-03-01T10:19:31.842Z,1010.93
2019-03-01T10:20:31.792Z,1011.00
2019-03-01T10:21:31.748Z,1011.03
2019-03-01T10:22:31.698Z,1011.03
2019-03-01T10:23:31.652Z,1011.00
2019-03-01T10:24:31.604Z,1011.08
2019-03-01T10:25:31.559Z,1011.06
2019-03-01T10:26:31.508Z,1011.05
2019-03-01T10:27:31.461Z,1011.08
2019-03-01T10:28:31.417Z,1011.12
2019-03-01T10:29:31.370Z,1011.10
2019-03-01T10:30:31.319Z,1011.11
2019-03-01T10:31:31.277Z,1011.12
2019-03-01T10:32:31.228Z,1011.15
2019-03-01T10:33:31.175Z,1011.16
2019-03-01T10:34:31.132Z,1011.19
2019-03-01T10:35:31.083Z,1011.19
2019-03-01T10:36:31.033Z,1011.19
2019-03-01T10:37:30.989Z,1011.18
2019-03-01T10:38:30.946Z,1011.21
2019-03-01T10:39:30.895Z,1011.25
2019-03-01T10:40:30.847Z,1011.23
2019-03-01T10:41:30.798Z,1011.21
2019-03-01T10:42:30.754Z,1011.22
2019-03-01T10:43:30.706Z,1011.26
2019-03-01T10:44:30.658Z,1011.30
2019-03-01T10:45:30.608Z,1011.28
2019-03-01T10:46:30.559Z,1011.34
2019-03-01T10:47:30.511Z,1011.35
2019-03-01T10:48:30.468Z,1011.35
2019-03-01T10:49:30.418Z,1011.34
2019-03-01T10:50:30.376Z,1011.37
2019-03-01T10:51:30.329Z,1011.37
2019-03-01T10:52:30.277Z,1011.43
2019-03-01T10:53:30.233Z,1011.36
2019-03-01T10:54:30.185Z,1011.34
2019-03-01T10:55:30.136Z,1011.39
2019-03-01T10:56:30.094Z,1011.40
2019-03-01T10:57:30.041Z,1011.41
2019-03-01T10:58:29.992Z,1011.42
2019-03-01T10:59:29.983Z,1011.47
2019-03-01T11:00:29.944Z,1011.44
2019-03-01T11:01:29.859Z,1011.46
2019-03-01T11:02:29.814Z,1011.49
2019-03-01T11:03:29.757Z,1011.47
2019-03-01T11:04:29.711Z,1011.46
2019-03-01T11:05:29.665Z,1011.44
2019-03-01T11:06:29.621Z,1011.49
2019-03-01T11:07:29.588Z,1011.51
2019-03-01T11:08:29.522Z,1011.50
2019-03-01T11:09:29.476Z,1011.50
2019-03-01T11:10:29.428Z,1011.51
2019-03-01T11:11:29.378Z,1011.49
2019-03-01T11:12:29.328Z,1011.51
2019-03-01T11:13:29.286Z,1011.56
2019-03-01T11:14:29.236Z,1011.56
2019-03-01T11:15:29.196Z,1011.54
2019-03-01T11:16:29.142Z,1011.58
2019-03-01T11:17:29.094Z,1011.59
2019-03-01T11:18:29.048Z,1011.56
2019-03-01T11:19:29.007Z,1011.57
2019-03-01T11:20:28.953Z,1011.60
2019-03-01T11:21:28.913Z,1011.61
2019-03-01T11:22:28.858Z,1011.68
2019-03-01T11:23:28.811Z,1011.66
2019-03-01T11:24:28.765Z,1011.62
2019-03-01T11:25:28.718Z,1011.66
2019-03-01T11:26:28.670Z,1011.63
2019-03-01T11:27:28.622Z,1011.66
2019-03-01T11:28:28.576Z,1011.63
2019-03-01T11:29:28.531Z,1011.68
2019-03-01T11:30:28.480Z,1011.68
2019-03-01T11:31:28.437Z,1011.70
2019-03-01T11:32:28.390Z,1011.67
2019-03-01T11:33:28.342Z,1011.71
2019-03-01T11:34:28.291Z,1011.68
2019-03-01T11:35:28.243Z,1011.70
2019-03-01T11:36:28.205Z,1011.67
2019-03-01T11:37:28.152Z,1011.71
2019-03-01T11:38:28.103Z,1011.68
2019-03-01T11:39:28.053Z,1011.73
2019-03-01T11:40:28.008Z,1011.73
2019-03-01T11:41:27.963Z,1011.74
2019-03-01T11:42:27.916Z,1011.78
2019-03-01T11:43:27.870Z,1011.74
2019-03-01T11:44:27.830Z,1011.76
2019-03-01T11:45:27.774Z,1011.80
2019-03-01T11:46:27.724Z,1011.84
2019-03-01T11:47:27.679Z,1011.78
2019-03-01T11:48:27.628Z,1011.82
2019-03-01T11:49:27.586Z,1011.81
2019-03-01T11:50:27.536Z,1011.81
2019-03-01T11:51:27.861Z,1011.86
2019-03-01T11:52:27.446Z,1011.85
2019-03-01T11:53:27.394Z,1011.86
2019-03-01T11:54:27.345Z,1011.89
2019-03-01T11:55:27.301Z,1011.89
2019-03-01T11:56:27.251Z,1011.83
2019-03-01T11:57:27.207Z,1011.93
2019-03-01T11:58:27.159Z,1011.90
2019-03-01T11:59:27.114Z,1011.95
2019-03-01T12:00:27.069Z,1011.95
2019-03-01T12:01:27.018Z,1011.93
2019-03-01T12:02:26.975Z,1012.00
2019-03-01T12:03:26.922Z,1012.01
2019-03-01T12:04:26.880Z,1012.04
2019-03-01T12:05:26.875Z,1011.98
2019-03-01T12:06:26.787Z,1012.02